Terminal Aerodrome Forecast
Issued by NWS

Home | Current Version | Previous Version | Text Only | Print | Product List | Glossary On
Versions: 1 2 3 4 5 6 7 8 9 10 11 12 13 14 15 16 17 18
000
FTUS43 KJKL 291739
TAFSJS
TAF
KSJS 291739Z 2918/3018 04005KT P6SM BKN030
     FM292000 03005KT P6SM SCT050 SCT150
     FM301000 VRB06KT P6SM SCT060 BKN100
     FM301500 16007KT P6SM SCT060 BKN080=

USA.gov is the U.S. government's official web portal to all federal, state and local government web resources and services.